createdAt,value
2017-03-04T00:00:08.249Z,930.2
2017-03-04T00:00:36.268Z,930.21
2017-03-04T00:01:04.425Z,930.19
2017-03-04T00:01:32.560Z,930.23
2017-03-04T00:02:00.757Z,930.23
2017-03-04T00:02:29.084Z,930.23
2017-03-04T00:02:57.334Z,930.2
2017-03-04T00:03:25.476Z,930.21
2017-03-04T00:03:53.690Z,930.22
2017-03-04T00:04:21.854Z,930.22
2017-03-04T00:04:50.058Z,930.24
2017-03-04T00:05:18.225Z,930.2
2017-03-04T00:05:46.346Z,930.2
2017-03-04T00:06:14.539Z,930.16
2017-03-04T00:06:42.773Z,930.18
2017-03-04T00:07:10.851Z,930.15
2017-03-04T00:07:38.868Z,930.14
2017-03-04T00:08:07.134Z,930.13
2017-03-04T00:08:35.180Z,930.11
2017-03-04T00:09:03.272Z,930.14
2017-03-04T00:09:31.346Z,930.11
2017-03-04T00:09:59.604Z,930.1
2017-03-04T00:10:27.607Z,930.11
2017-03-04T00:10:55.890Z,930.19
2017-03-04T00:11:24.118Z,930.15
2017-03-04T00:11:52.249Z,930.15
2017-03-04T00:12:20.572Z,930.17
2017-03-04T00:12:48.887Z,930.19
2017-03-04T00:13:17.110Z,930.24
2017-03-04T00:13:45.278Z,930.24
2017-03-04T00:14:13.506Z,930.23
2017-03-04T00:14:41.599Z,930.26
2017-03-04T00:15:09.760Z,930.27
2017-03-04T00:15:38.045Z,930.29
2017-03-04T00:16:06.220Z,930.29
2017-03-04T00:16:34.471Z,930.31
2017-03-04T00:17:02.553Z,930.31
2017-03-04T00:17:30.739Z,930.29
2017-03-04T00:17:58.867Z,930.27
2017-03-04T00:18:27.021Z,930.28
2017-03-04T00:18:55.271Z,930.26
2017-03-04T00:19:23.401Z,930.28
2017-03-04T00:19:51.681Z,930.22
2017-03-04T00:20:19.992Z,930.25
2017-03-04T00:20:48.190Z,930.21
2017-03-04T00:21:16.304Z,930.26
2017-03-04T00:21:44.407Z,930.22
2017-03-04T00:22:12.627Z,930.22
2017-03-04T00:22:40.793Z,930.23
2017-03-04T00:23:09.000Z,930.23
2017-03-04T00:23:36.916Z,930.22
2017-03-04T00:24:05.187Z,930.22
2017-03-04T00:24:33.311Z,930.23
2017-03-04T00:25:01.481Z,930.23
2017-03-04T00:25:42.288Z,930.25
2017-03-04T00:26:23.205Z,930.25
2017-03-04T00:26:51.127Z,930.27
2017-03-04T00:27:19.312Z,930.31
2017-03-04T00:27:47.548Z,930.31
2017-03-04T00:28:15.788Z,930.32
2017-03-04T00:28:43.997Z,930.32
2017-03-04T00:29:12.104Z,930.36
2017-03-04T00:29:40.351Z,930.36
2017-03-04T00:30:08.607Z,930.4
2017-03-04T00:30:36.860Z,930.4
2017-03-04T00:31:05.143Z,930.41
2017-03-04T00:31:33.220Z,930.44
2017-03-04T00:32:01.355Z,930.45
2017-03-04T00:32:29.355Z,930.43
2017-03-04T00:32:57.461Z,930.41
2017-03-04T00:33:25.751Z,930.43
2017-03-04T00:33:53.839Z,930.44
2017-03-04T00:34:21.868Z,930.44
2017-03-04T00:34:50.152Z,930.42
2017-03-04T00:35:18.248Z,930.43
2017-03-04T00:35:46.412Z,930.41
2017-03-04T00:36:14.735Z,930.43
2017-03-04T00:36:42.927Z,930.41
2017-03-04T00:37:11.065Z,930.42
2017-03-04T00:37:39.333Z,930.39
2017-03-04T00:38:07.526Z,930.41
2017-03-04T00:38:35.676Z,930.41
2017-03-04T00:39:03.875Z,930.41
2017-03-04T00:39:31.967Z,930.39
2017-03-04T00:40:00.176Z,930.41
2017-03-04T00:40:28.377Z,930.4
2017-03-04T00:40:56.409Z,930.37
2017-03-04T00:41:24.492Z,930.43
2017-03-04T00:41:52.640Z,930.4
2017-03-04T00:42:20.666Z,930.37
2017-03-04T00:42:48.955Z,930.39
2017-03-04T00:43:17.234Z,930.41
2017-03-04T00:43:45.413Z,930.43
2017-03-04T00:44:13.608Z,930.42
2017-03-04T00:44:41.782Z,930.4
2017-03-04T00:45:09.896Z,930.39
2017-03-04T00:45:37.998Z,930.37
2017-03-04T00:46:06.286Z,930.38
2017-03-04T00:46:34.582Z,930.37
2017-03-04T00:47:02.792Z,930.35
2017-03-04T00:47:31.026Z,930.36
2017-03-04T00:47:59.194Z,930.37
2017-03-04T00:48:27.267Z,930.36
2017-03-04T00:48:55.468Z,930.35
2017-03-04T00:49:23.758Z,930.38
2017-03-04T00:49:52.075Z,930.35
2017-03-04T00:50:20.246Z,930.36
2017-03-04T00:50:48.357Z,930.42
2017-03-04T00:51:16.654Z,930.36
2017-03-04T00:51:44.959Z,930.37
2017-03-04T00:52:13.253Z,930.37
2017-03-04T00:52:41.389Z,930.38
2017-03-04T00:53:09.520Z,930.38
2017-03-04T00:53:38.453Z,930.41
2017-03-04T00:54:06.543Z,930.39
2017-03-04T00:54:34.667Z,930.37
2017-03-04T00:55:02.861Z,930.38
2017-03-04T00:55:30.980Z,930.4
2017-03-04T00:55:59.163Z,930.38
2017-03-04T00:56:27.217Z,930.29
2017-03-04T00:56:55.420Z,930.39
2017-03-04T00:57:23.399Z,930.36
2017-03-04T00:57:51.661Z,930.4
2017-03-04T00:58:19.901Z,930.4
2017-03-04T00:58:48.060Z,930.41
2017-03-04T00:59:16.191Z,930.4
2017-03-04T00:59:44.412Z,930.41
2017-03-04T01:00:12.692Z,930.38
2017-03-04T01:00:40.808Z,930.41
2017-03-04T01:01:08.993Z,930.39
2017-03-04T01:01:37.286Z,930.37
2017-03-04T01:02:05.534Z,930.37
2017-03-04T01:02:33.603Z,930.38
2017-03-04T01:03:01.812Z,930.36
2017-03-04T01:03:29.946Z,930.4
2017-03-04T01:03:57.909Z,930.38
2017-03-04T01:04:26.073Z,930.38
2017-03-04T01:04:54.280Z,930.39
2017-03-04T01:05:22.481Z,930.34
2017-03-04T01:05:50.675Z,930.37
2017-03-04T01:06:18.943Z,930.39
2017-03-04T01:06:47.073Z,930.42
2017-03-04T01:07:15.286Z,930.44
2017-03-04T01:07:43.539Z,930.39
2017-03-04T01:08:11.735Z,930.43
2017-03-04T01:08:39.902Z,930.4
2017-03-04T01:09:08.052Z,930.41
2017-03-04T01:09:35.885Z,930.35
2017-03-04T01:10:04.013Z,930.4
2017-03-04T01:10:32.287Z,930.44
2017-03-04T01:11:00.495Z,930.41
2017-03-04T01:11:28.710Z,930.44
2017-03-04T01:11:56.903Z,930.37
2017-03-04T01:12:25.174Z,930.41
2017-03-04T01:12:53.473Z,930.44
2017-03-04T01:13:21.646Z,930.43
2017-03-04T01:13:49.893Z,930.41
2017-03-04T01:14:18.089Z,930.45
2017-03-04T01:14:46.326Z,930.43
2017-03-04T01:15:14.242Z,930.39
2017-03-04T01:15:42.523Z,930.43
2017-03-04T01:16:10.800Z,930.41
2017-03-04T01:16:39.260Z,930.4
2017-03-04T01:17:07.363Z,930.41
2017-03-04T01:17:35.613Z,930.4
2017-03-04T01:18:03.688Z,930.38
2017-03-04T01:18:31.768Z,930.41
2017-03-04T01:18:59.996Z,930.43
2017-03-04T01:19:28.135Z,930.43
2017-03-04T01:19:56.253Z,930.37
2017-03-04T01:20:24.425Z,930.42
2017-03-04T01:20:52.661Z,930.4
2017-03-04T01:21:20.760Z,930.41
2017-03-04T01:21:48.921Z,930.42
2017-03-04T01:22:16.986Z,930.46
2017-03-04T01:22:45.095Z,930.4
2017-03-04T01:23:13.128Z,930.45
2017-03-04T01:23:41.272Z,930.45
2017-03-04T01:24:09.533Z,930.47
2017-03-04T01:24:37.768Z,930.44
2017-03-04T01:25:05.925Z,930.42
2017-03-04T01:25:34.154Z,930.43
2017-03-04T01:26:02.355Z,930.46
2017-03-04T01:26:30.573Z,930.42
2017-03-04T01:26:58.753Z,930.44
2017-03-04T01:27:26.927Z,930.45
2017-03-04T01:27:55.124Z,930.45
2017-03-04T01:28:23.309Z,930.44
2017-03-04T01:28:51.387Z,930.46
2017-03-04T01:29:19.605Z,930.43
2017-03-04T01:29:47.773Z,930.45
2017-03-04T01:30:15.973Z,930.42
2017-03-04T01:30:43.985Z,930.46
2017-03-04T01:31:12.044Z,930.44
2017-03-04T01:31:40.386Z,930.43
2017-03-04T01:32:08.671Z,930.43
2017-03-04T01:32:36.949Z,930.45
2017-03-04T01:33:05.110Z,930.44
2017-03-04T01:33:33.196Z,930.44
2017-03-04T01:34:01.469Z,930.46
2017-03-04T01:34:29.642Z,930.43
2017-03-04T01:34:57.855Z,930.41
2017-03-04T01:35:26.080Z,930.47
2017-03-04T01:35:54.225Z,930.43
2017-03-04T01:36:22.498Z,930.45
2017-03-04T01:36:50.636Z,930.47
2017-03-04T01:37:18.782Z,930.46
2017-03-04T01:37:46.992Z,930.47
2017-03-04T01:38:15.191Z,930.47
2017-03-04T01:38:43.360Z,930.44
2017-03-04T01:39:11.625Z,930.47
2017-03-04T01:39:39.748Z,930.47
2017-03-04T01:40:08.090Z,930.53
2017-03-04T01:40:36.299Z,930.49
2017-03-04T01:41:04.368Z,930.5
2017-03-04T01:41:32.728Z,930.47
2017-03-04T01:42:00.939Z,930.47
2017-03-04T01:42:29.162Z,930.49
2017-03-04T01:42:57.274Z,930.54
2017-03-04T01:43:25.328Z,930.51
2017-03-04T01:43:53.428Z,930.49
2017-03-04T01:44:21.606Z,930.54
2017-03-04T01:44:49.795Z,930.59
2017-03-04T01:45:18.163Z,930.56
2017-03-04T01:45:46.328Z,930.56
2017-03-04T01:46:14.537Z,930.54
2017-03-04T01:46:42.598Z,930.56
2017-03-04T01:47:10.803Z,930.56
2017-03-04T01:47:38.953Z,930.55
2017-03-04T01:48:07.140Z,930.56
2017-03-04T01:48:35.410Z,930.58
2017-03-04T01:49:03.665Z,930.55
2017-03-04T01:49:31.847Z,930.54
2017-03-04T01:49:59.967Z,930.56
2017-03-04T01:50:28.033Z,930.58
2017-03-04T01:50:56.230Z,930.6
2017-03-04T01:51:24.391Z,930.56
2017-03-04T01:51:52.448Z,930.57
2017-03-04T01:52:20.712Z,930.57
2017-03-04T01:52:48.838Z,930.56
2017-03-04T01:53:17.018Z,930.57
2017-03-04T01:53:45.201Z,930.56
2017-03-04T01:54:13.298Z,930.55
2017-03-04T01:54:41.389Z,930.57
2017-03-04T01:55:09.704Z,930.58
2017-03-04T01:55:37.916Z,930.58
2017-03-04T01:56:06.222Z,930.6
2017-03-04T01:56:34.408Z,930.55
2017-03-04T01:57:02.773Z,930.58
2017-03-04T01:57:31.074Z,930.6
2017-03-04T01:57:59.296Z,930.59
2017-03-04T01:58:27.581Z,930.57
2017-03-04T01:58:55.823Z,930.6
2017-03-04T01:59:24.049Z,930.56
2017-03-04T01:59:52.209Z,930.57
2017-03-04T02:00:20.304Z,930.59
2017-03-04T02:00:48.501Z,930.58
2017-03-04T02:01:16.709Z,930.56
2017-03-04T02:01:44.966Z,930.59
2017-03-04T02:02:13.170Z,930.6
2017-03-04T02:02:41.299Z,930.61
2017-03-04T02:03:09.538Z,930.6
2017-03-04T02:03:37.801Z,930.61
2017-03-04T02:04:05.943Z,930.63
2017-03-04T02:04:34.204Z,930.59
2017-03-04T02:05:02.481Z,930.6
2017-03-04T02:05:30.798Z,930.6
2017-03-04T02:05:58.936Z,930.6
2017-03-04T02:06:27.193Z,930.59
2017-03-04T02:06:55.276Z,930.6
2017-03-04T02:07:23.481Z,930.61
2017-03-04T02:07:51.725Z,930.58
2017-03-04T02:08:20.258Z,930.58
2017-03-04T02:08:48.355Z,930.61
2017-03-04T02:09:16.523Z,930.58
2017-03-04T02:09:44.708Z,930.59
2017-03-04T02:10:12.926Z,930.57
2017-03-04T02:10:41.052Z,930.6
2017-03-04T02:11:09.344Z,930.57
2017-03-04T02:11:37.711Z,930.57
2017-03-04T02:12:05.993Z,930.6
2017-03-04T02:12:34.266Z,930.59
2017-03-04T02:13:02.447Z,930.59
2017-03-04T02:13:30.397Z,930.62
2017-03-04T02:13:58.548Z,930.61
2017-03-04T02:14:26.735Z,930.59
2017-03-04T02:14:54.846Z,930.58
2017-03-04T02:15:22.936Z,930.59
2017-03-04T02:15:51.134Z,930.57
2017-03-04T02:16:19.417Z,930.59
2017-03-04T02:16:47.676Z,930.54
2017-03-04T02:17:15.874Z,930.53
2017-03-04T02:17:56.798Z,930.55
2017-03-04T02:18:44.183Z,930.52
2017-03-04T02:19:12.282Z,930.5
2017-03-04T02:19:40.374Z,930.48
2017-03-04T02:20:08.462Z,930.48
2017-03-04T02:20:36.585Z,930.5
2017-03-04T02:21:04.792Z,930.48
2017-03-04T02:21:32.985Z,930.47
2017-03-04T02:22:01.248Z,930.48
2017-03-04T02:22:29.237Z,930.45
2017-03-04T02:22:57.468Z,930.43
2017-03-04T02:23:25.577Z,930.43
2017-03-04T02:23:53.709Z,930.42
2017-03-04T02:24:21.878Z,930.41
2017-03-04T02:24:50.166Z,930.39
2017-03-04T02:25:18.415Z,930.37
2017-03-04T02:25:46.605Z,930.36
2017-03-04T02:26:14.824Z,930.34
2017-03-04T02:26:43.091Z,930.34
2017-03-04T02:27:11.280Z,930.32
2017-03-04T02:27:39.551Z,930.34
2017-03-04T02:28:07.561Z,930.32
2017-03-04T02:28:35.715Z,930.31
2017-03-04T02:29:03.899Z,930.33
2017-03-04T02:29:32.019Z,930.33
2017-03-04T02:30:00.158Z,930.32
2017-03-04T02:30:28.329Z,930.33
2017-03-04T02:30:56.479Z,930.27
2017-03-04T02:31:24.720Z,930.29
2017-03-04T02:31:52.969Z,930.29
2017-03-04T02:32:20.824Z,930.32
2017-03-04T02:32:49.026Z,930.31
2017-03-04T02:33:17.277Z,930.3
2017-03-04T02:33:45.358Z,930.33
2017-03-04T02:34:13.554Z,930.27
2017-03-04T02:34:41.609Z,930.26
2017-03-04T02:35:09.835Z,930.26
2017-03-04T02:35:38.109Z,930.27
2017-03-04T02:36:06.243Z,930.28
2017-03-04T02:36:34.431Z,930.27
2017-03-04T02:37:02.647Z,930.25
2017-03-04T02:37:30.907Z,930.26
2017-03-04T02:37:59.096Z,930.27
2017-03-04T02:38:27.349Z,930.25
2017-03-04T02:38:55.408Z,930.3
2017-03-04T02:39:23.484Z,930.24
2017-03-04T02:39:51.674Z,930.25
2017-03-04T02:40:19.812Z,930.28
2017-03-04T02:40:47.884Z,930.29
2017-03-04T02:41:16.081Z,930.3
2017-03-04T02:41:44.261Z,930.28
2017-03-04T02:42:12.476Z,930.27
2017-03-04T02:42:40.551Z,930.28
2017-03-04T02:43:08.795Z,930.27
2017-03-04T02:43:36.972Z,930.3
2017-03-04T02:44:05.249Z,930.28
2017-03-04T02:44:33.527Z,930.29
2017-03-04T02:45:01.693Z,930.27
2017-03-04T02:45:29.855Z,930.29
2017-03-04T02:45:58.110Z,930.3
2017-03-04T02:46:26.342Z,930.29
2017-03-04T02:46:54.594Z,930.3
2017-03-04T02:47:22.638Z,930.29
2017-03-04T02:47:50.850Z,930.31
2017-03-04T02:48:18.881Z,930.3
2017-03-04T02:48:47.128Z,930.32
2017-03-04T02:49:15.120Z,930.28
2017-03-04T02:49:43.088Z,930.32
2017-03-04T02:50:11.398Z,930.32
2017-03-04T02:50:39.517Z,930.34
2017-03-04T02:51:07.625Z,930.31
2017-03-04T02:51:35.809Z,930.31
2017-03-04T02:52:03.926Z,930.3
2017-03-04T02:52:32.191Z,930.31
2017-03-04T02:53:00.502Z,930.29
2017-03-04T02:53:28.653Z,930.33
2017-03-04T02:53:56.862Z,930.3
2017-03-04T02:54:24.960Z,930.3
2017-03-04T02:54:53.233Z,930.28
2017-03-04T02:55:21.482Z,930.3
2017-03-04T02:55:49.714Z,930.27
2017-03-04T02:56:17.794Z,930.32
2017-03-04T02:56:46.091Z,930.29
2017-03-04T02:57:14.205Z,930.28
2017-03-04T02:57:42.389Z,930.31
2017-03-04T02:58:10.572Z,930.32
2017-03-04T02:58:38.778Z,930.29
2017-03-04T02:59:06.854Z,930.29
2017-03-04T02:59:35.068Z,930.29
2017-03-04T03:00:03.045Z,930.27
2017-03-04T03:00:31.142Z,930.26
2017-03-04T03:00:59.237Z,930.25
2017-03-04T03:01:27.397Z,930.27
2017-03-04T03:01:55.645Z,930.23
2017-03-04T03:02:24.060Z,930.24
2017-03-04T03:02:52.218Z,930.21
2017-03-04T03:03:20.392Z,930.2
2017-03-04T03:03:48.548Z,930.22
2017-03-04T03:04:16.539Z,930.23
2017-03-04T03:04:44.699Z,930.24
2017-03-04T03:05:12.797Z,930.21
2017-03-04T03:05:41.073Z,930.19
2017-03-04T03:06:09.122Z,930.21
2017-03-04T03:06:37.383Z,930.19
2017-03-04T03:07:05.650Z,930.2
2017-03-04T03:07:33.814Z,930.18
2017-03-04T03:08:02.104Z,930.15
2017-03-04T03:08:30.217Z,930.14
2017-03-04T03:08:58.506Z,930.12
2017-03-04T03:09:26.777Z,930.14
2017-03-04T03:09:54.889Z,930.14
2017-03-04T03:10:23.105Z,930.12
2017-03-04T03:10:51.371Z,930.13
2017-03-04T03:11:19.476Z,930.08
2017-03-04T03:11:47.638Z,930.12
2017-03-04T03:12:15.734Z,930.07
2017-03-04T03:12:44.148Z,930.1
2017-03-04T03:13:12.454Z,930.09
2017-03-04T03:13:40.625Z,930.11
2017-03-04T03:14:08.874Z,930.15
2017-03-04T03:14:37.097Z,930.11
2017-03-04T03:15:05.327Z,930.12
2017-03-04T03:15:33.491Z,930.14
2017-03-04T03:16:01.568Z,930.11
2017-03-04T03:16:29.873Z,930.1
2017-03-04T03:16:58.003Z,930.1
2017-03-04T03:17:26.091Z,930.12
2017-03-04T03:17:54.360Z,930.13
2017-03-04T03:18:22.492Z,930.13
2017-03-04T03:18:50.648Z,930.12
2017-03-04T03:19:18.837Z,930.11
2017-03-04T03:19:46.885Z,930.11
2017-03-04T03:20:15.081Z,930.09
2017-03-04T03:20:43.274Z,930.1
2017-03-04T03:21:11.469Z,930.12
2017-03-04T03:21:39.654Z,930.15
2017-03-04T03:22:07.758Z,930.14
2017-03-04T03:22:36.051Z,930.15
2017-03-04T03:23:04.366Z,930.16
2017-03-04T03:23:32.429Z,930.18
2017-03-04T03:24:00.615Z,930.15
2017-03-04T03:24:28.762Z,930.19
2017-03-04T03:24:56.861Z,930.18
2017-03-04T03:25:25.034Z,930.14
2017-03-04T03:25:53.124Z,930.19
2017-03-04T03:26:21.397Z,930.22
2017-03-04T03:26:49.578Z,930.21
2017-03-04T03:27:17.727Z,930.22
2017-03-04T03:27:45.943Z,930.2
2017-03-04T03:28:14.087Z,930.21
2017-03-04T03:28:42.291Z,930.2
2017-03-04T03:29:10.507Z,930.21
2017-03-04T03:29:38.488Z,930.21
2017-03-04T03:30:06.631Z,930.22
2017-03-04T03:30:34.678Z,930.2
2017-03-04T03:31:02.859Z,930.21
2017-03-04T03:31:31.036Z,930.22
2017-03-04T03:31:59.036Z,930.19
2017-03-04T03:32:27.249Z,930.18
2017-03-04T03:32:55.679Z,930.2
2017-03-04T03:33:23.685Z,930.2
2017-03-04T03:33:51.922Z,930.22
2017-03-04T03:34:20.785Z,930.22
2017-03-04T03:34:48.983Z,930.2
2017-03-04T03:35:17.175Z,930.19
2017-03-04T03:35:45.264Z,930.2
2017-03-04T03:36:13.611Z,930.18
2017-03-04T03:36:41.906Z,930.19
2017-03-04T03:37:10.219Z,930.17
2017-03-04T03:37:38.181Z,930.2
2017-03-04T03:38:06.307Z,930.16
2017-03-04T03:38:34.485Z,930.14
2017-03-04T03:39:02.560Z,930.17
2017-03-04T03:39:30.674Z,930.13
2017-03-04T03:39:58.975Z,930.14
2017-03-04T03:40:27.122Z,930.15
2017-03-04T03:40:55.205Z,930.14
2017-03-04T03:41:23.369Z,930.14
2017-03-04T03:41:51.641Z,930.09
2017-03-04T03:42:19.811Z,930.09
2017-03-04T03:42:48.025Z,930.08
2017-03-04T03:43:16.222Z,930.1
2017-03-04T03:43:44.419Z,930.05
2017-03-04T03:44:12.657Z,930.06
2017-03-04T03:44:40.782Z,930.07
2017-03-04T03:45:09.062Z,930.05
2017-03-04T03:45:37.288Z,930.03
2017-03-04T03:46:05.605Z,930.02
2017-03-04T03:46:33.668Z,929.99
2017-03-04T03:47:01.969Z,930.02
2017-03-04T03:47:30.249Z,930
2017-03-04T03:47:58.340Z,929.92
2017-03-04T03:48:26.550Z,929.95
2017-03-04T03:48:54.665Z,929.94
2017-03-04T03:49:22.784Z,929.95
2017-03-04T03:49:51.057Z,929.95
2017-03-04T03:50:19.184Z,929.95
2017-03-04T03:50:47.402Z,929.96
2017-03-04T03:51:15.563Z,929.95
2017-03-04T03:51:43.645Z,929.97
2017-03-04T03:52:11.892Z,929.92
2017-03-04T03:52:40.261Z,929.92
2017-03-04T03:53:08.367Z,929.93
2017-03-04T03:53:36.559Z,929.88
2017-03-04T03:54:04.990Z,929.91
2017-03-04T03:54:33.260Z,929.89
2017-03-04T03:55:01.465Z,929.89
2017-03-04T03:55:29.652Z,929.84
2017-03-04T03:55:57.861Z,929.85
2017-03-04T03:56:26.042Z,929.85
2017-03-04T03:56:54.339Z,929.86
2017-03-04T03:57:22.575Z,929.84
2017-03-04T03:57:50.550Z,929.81
2017-03-04T03:58:18.709Z,929.82
2017-03-04T03:58:46.919Z,929.81
2017-03-04T03:59:15.106Z,929.77
2017-03-04T03:59:43.331Z,929.79
2017-03-04T04:00:11.517Z,929.76
2017-03-04T04:00:39.804Z,929.77
2017-03-04T04:01:08.064Z,929.73
2017-03-04T04:01:36.277Z,929.69
2017-03-04T04:02:04.416Z,929.68
2017-03-04T04:02:32.576Z,929.66
2017-03-04T04:03:00.853Z,929.67
2017-03-04T04:03:29.127Z,929.64
2017-03-04T04:03:57.345Z,929.63
2017-03-04T04:04:25.569Z,929.61
2017-03-04T04:04:53.868Z,929.58
2017-03-04T04:05:22.153Z,929.57
2017-03-04T04:05:50.279Z,929.57
2017-03-04T04:06:18.529Z,929.51
2017-03-04T04:06:46.558Z,929.5
2017-03-04T04:07:14.783Z,929.48
2017-03-04T04:07:42.988Z,929.51
2017-03-04T04:08:11.197Z,929.44
2017-03-04T04:08:39.356Z,929.44
2017-03-04T04:09:07.513Z,929.43
2017-03-04T04:09:35.465Z,929.38
2017-03-04T04:10:03.638Z,929.4
2017-03-04T04:10:31.810Z,929.38
2017-03-04T04:10:59.971Z,929.35
2017-03-04T04:11:28.230Z,929.33
2017-03-04T04:11:56.504Z,929.25
2017-03-04T04:12:24.572Z,929.29
2017-03-04T04:12:52.818Z,929.27
2017-03-04T04:13:21.010Z,929.25
2017-03-04T04:13:49.239Z,929.25
2017-03-04T04:14:17.443Z,929.23
2017-03-04T04:14:45.461Z,929.23
2017-03-04T04:15:13.527Z,929.2
2017-03-04T04:15:41.610Z,929.17
2017-03-04T04:16:09.775Z,929.16
2017-03-04T04:16:37.871Z,929.16
2017-03-04T04:17:05.976Z,929.11
2017-03-04T04:17:34.242Z,929.09
2017-03-04T04:18:02.429Z,929.11
2017-03-04T04:18:30.557Z,929.12
2017-03-04T04:18:58.876Z,929.09
2017-03-04T04:19:27.150Z,929.09
2017-03-04T04:19:55.236Z,929.05
2017-03-04T04:20:23.507Z,929.04
2017-03-04T04:20:51.677Z,929.03
2017-03-04T04:21:19.684Z,929.03
2017-03-04T04:21:47.875Z,929.02
2017-03-04T04:22:16.160Z,928.99
2017-03-04T04:22:44.430Z,928.95
2017-03-04T04:23:12.681Z,928.97
2017-03-04T04:23:40.863Z,928.95
2017-03-04T04:24:09.131Z,928.94
2017-03-04T04:24:37.390Z,928.94
2017-03-04T04:25:05.597Z,928.91
2017-03-04T04:25:33.764Z,928.91
2017-03-04T04:26:02.011Z,928.9
2017-03-04T04:26:30.109Z,928.84
2017-03-04T04:26:58.299Z,928.82
2017-03-04T04:27:26.434Z,928.86
2017-03-04T04:27:54.563Z,928.8
2017-03-04T04:28:22.819Z,928.84
2017-03-04T04:28:50.869Z,928.81
2017-03-04T04:29:19.061Z,928.8
2017-03-04T04:29:47.185Z,928.77
2017-03-04T04:30:15.395Z,928.73
2017-03-04T04:30:43.596Z,928.76
2017-03-04T04:31:11.744Z,928.71
2017-03-04T04:31:39.819Z,928.72
2017-03-04T04:32:07.964Z,928.69
2017-03-04T04:32:35.955Z,928.65
2017-03-04T04:33:04.303Z,928.67
2017-03-04T04:33:32.485Z,928.63
2017-03-04T04:34:00.684Z,928.67
2017-03-04T04:34:28.879Z,928.64
2017-03-04T04:34:57.124Z,928.65
2017-03-04T04:35:25.399Z,928.65
2017-03-04T04:35:53.656Z,928.61
2017-03-04T04:36:21.830Z,928.62
2017-03-04T04:36:49.935Z,928.62
2017-03-04T04:37:18.052Z,928.61
2017-03-04T04:37:46.128Z,928.6
2017-03-04T04:38:14.419Z,928.6
2017-03-04T04:38:42.562Z,928.57
2017-03-04T04:39:10.661Z,928.58
2017-03-04T04:39:38.809Z,928.58
2017-03-04T04:40:06.965Z,928.57
2017-03-04T04:40:35.228Z,928.54
2017-03-04T04:41:03.357Z,928.56
2017-03-04T04:41:31.525Z,928.53
2017-03-04T04:41:59.631Z,928.54
2017-03-04T04:42:27.849Z,928.51
2017-03-04T04:42:56.265Z,928.52
2017-03-04T04:43:24.343Z,928.5
2017-03-04T04:43:52.462Z,928.48
2017-03-04T04:44:20.685Z,928.51
2017-03-04T04:44:48.872Z,928.47
2017-03-04T04:45:17.041Z,928.49
2017-03-04T04:45:45.322Z,928.43
2017-03-04T04:46:13.421Z,928.45
2017-03-04T04:46:41.688Z,928.46
2017-03-04T04:47:09.959Z,928.43
2017-03-04T04:47:38.131Z,928.42
2017-03-04T04:48:06.271Z,928.4
2017-03-04T04:48:34.373Z,928.44
2017-03-04T04:49:02.646Z,928.43
2017-03-04T04:49:30.820Z,928.44
2017-03-04T04:49:58.939Z,928.41
2017-03-04T04:50:26.988Z,928.37
2017-03-04T04:50:55.305Z,928.38
2017-03-04T04:51:23.537Z,928.35
2017-03-04T04:51:51.672Z,928.33
2017-03-04T04:52:19.824Z,928.36
2017-03-04T04:52:47.993Z,928.36
2017-03-04T04:53:16.285Z,928.34
2017-03-04T04:53:44.366Z,928.34
2017-03-04T04:54:12.671Z,928.37
2017-03-04T04:54:40.831Z,928.38
2017-03-04T04:55:08.929Z,928.38
2017-03-04T04:55:37.197Z,928.35
2017-03-04T04:56:05.405Z,928.35
2017-03-04T04:56:33.480Z,928.39
2017-03-04T04:57:01.795Z,928.38
2017-03-04T04:57:29.808Z,928.42
2017-03-04T04:57:57.846Z,928.41
2017-03-04T04:58:26.213Z,928.41
2017-03-04T04:58:54.405Z,928.44
2017-03-04T04:59:22.430Z,928.42
2017-03-04T04:59:50.347Z,928.42
2017-03-04T05:00:18.381Z,928.42
2017-03-04T05:00:46.710Z,928.41
2017-03-04T05:01:14.735Z,928.44
2017-03-04T05:01:43.035Z,928.4
2017-03-04T05:02:11.186Z,928.42
2017-03-04T05:02:39.317Z,928.37
2017-03-04T05:03:07.856Z,928.38
2017-03-04T05:03:35.999Z,928.4
2017-03-04T05:04:04.124Z,928.36
2017-03-04T05:04:32.303Z,928.37
2017-03-04T05:05:00.533Z,928.35
2017-03-04T05:05:28.826Z,928.37
2017-03-04T05:05:56.955Z,928.39
2017-03-04T05:06:25.117Z,928.36
2017-03-04T05:06:53.402Z,928.37
2017-03-04T05:07:21.569Z,928.38
2017-03-04T05:07:49.832Z,928.34
2017-03-04T05:08:17.982Z,928.41
2017-03-04T05:08:46.292Z,928.39
2017-03-04T05:09:14.611Z,928.38
2017-03-04T05:09:42.844Z,928.4
2017-03-04T05:10:11.142Z,928.42
2017-03-04T05:10:39.248Z,928.41
2017-03-04T05:11:07.533Z,928.41
2017-03-04T05:11:35.798Z,928.42
2017-03-04T05:12:03.955Z,928.44
2017-03-04T05:12:32.209Z,928.4
2017-03-04T05:13:00.334Z,928.42
2017-03-04T05:13:28.629Z,928.43
2017-03-04T05:13:56.786Z,928.39
2017-03-04T05:14:24.808Z,928.42
2017-03-04T05:14:53.084Z,928.42
2017-03-04T05:15:21.101Z,928.45
2017-03-04T05:15:49.313Z,928.41
2017-03-04T05:16:17.404Z,928.39
2017-03-04T05:16:45.473Z,928.39
2017-03-04T05:17:13.709Z,928.39
2017-03-04T05:17:41.784Z,928.36
2017-03-04T05:18:09.750Z,928.37
2017-03-04T05:18:38.094Z,928.36
2017-03-04T05:19:06.213Z,928.36
2017-03-04T05:19:34.520Z,928.35
2017-03-04T05:20:02.708Z,928.37
2017-03-04T05:20:30.870Z,928.38
2017-03-04T05:20:59.051Z,928.37
2017-03-04T05:21:27.347Z,928.33
2017-03-04T05:21:55.632Z,928.38
2017-03-04T05:22:23.856Z,928.36
2017-03-04T05:22:51.927Z,928.35
2017-03-04T05:23:20.095Z,928.35
2017-03-04T05:23:48.130Z,928.31
2017-03-04T05:24:16.303Z,928.3
2017-03-04T05:24:44.489Z,928.31
2017-03-04T05:25:12.559Z,928.31
2017-03-04T05:25:40.746Z,928.33
2017-03-04T05:26:08.802Z,928.3
2017-03-04T05:26:36.828Z,928.28
2017-03-04T05:27:05.116Z,928.3
2017-03-04T05:27:33.136Z,928.27
2017-03-04T05:28:01.350Z,928.25
2017-03-04T05:28:29.644Z,928.29
2017-03-04T05:28:57.836Z,928.25
2017-03-04T05:29:26.016Z,928.29
2017-03-04T05:29:54.159Z,928.26
2017-03-04T05:30:22.377Z,928.21
2017-03-04T05:30:50.668Z,928.23
2017-03-04T05:31:18.858Z,928.25
2017-03-04T05:31:46.881Z,928.23
2017-03-04T05:32:15.032Z,928.23
2017-03-04T05:32:43.284Z,928.22
2017-03-04T05:33:11.425Z,928.25
2017-03-04T05:33:39.621Z,928.21
2017-03-04T05:34:07.906Z,928.16
2017-03-04T05:34:36.041Z,928.18
2017-03-04T05:35:04.337Z,928.22
2017-03-04T05:35:32.532Z,928.19
2017-03-04T05:36:01.611Z,928.2
2017-03-04T05:36:36.771Z,928.23
2017-03-04T05:37:04.993Z,928.23
2017-03-04T05:37:33.177Z,928.23
2017-03-04T05:38:01.252Z,928.26
2017-03-04T05:38:29.555Z,928.23
2017-03-04T05:38:57.717Z,928.25
2017-03-04T05:39:25.949Z,928.24
2017-03-04T05:39:54.121Z,928.27
2017-03-04T05:40:22.344Z,928.27
2017-03-04T05:40:50.485Z,928.28
2017-03-04T05:41:18.642Z,928.29
2017-03-04T05:41:46.902Z,928.28
2017-03-04T05:42:15.157Z,928.26
2017-03-04T05:42:43.410Z,928.27
2017-03-04T05:43:11.553Z,928.25
2017-03-04T05:43:39.729Z,928.23
2017-03-04T05:44:07.736Z,928.24
2017-03-04T05:44:35.916Z,928.24
2017-03-04T05:45:04.069Z,928.25
2017-03-04T05:45:32.287Z,928.21
2017-03-04T05:46:00.513Z,928.21
2017-03-04T05:46:28.772Z,928.19
2017-03-04T05:46:56.950Z,928.2
2017-03-04T05:47:25.156Z,928.17
2017-03-04T05:47:53.336Z,928.19
2017-03-04T05:48:21.541Z,928.18
2017-03-04T05:48:49.925Z,928.17
2017-03-04T05:49:18.197Z,928.18
2017-03-04T05:49:46.235Z,928.16
2017-03-04T05:50:14.231Z,928.11
2017-03-04T05:50:42.404Z,928.17
2017-03-04T05:51:10.642Z,928.11
2017-03-04T05:51:38.749Z,928.1
2017-03-04T05:52:06.867Z,928.09
2017-03-04T05:52:35.148Z,928.08
2017-03-04T05:53:03.263Z,928.08
2017-03-04T05:53:31.287Z,928.08
2017-03-04T05:53:59.550Z,928.12